Aérodrome :
LOGIN :

S'inscrire | Disclaimer

   EN    FR    IT 

 










Légende :    VFR   VFR Marginal   IFR   IFR Intensif   IFR Très Intensif
Visi : 
Plafond : 
>= 8 km
>= 3000ft
5 à 8 km
1000 à 3000 ft
1500m à 5 km
500 à 1000 ft
800 à 1500m
200 à 500 ft
< 800m
< 200 ft
Symboles :   Orages  Brouillard  Fortes neiges  Fortes précipitations  Vent > 20 kt
SIGMETs :   Divers  Orages  Givrage  Turbulence  Onde Orograph.  Cendres Volcan.






- Altitude de l'aérodrome : 776 ft
- Code IATA : RMS


ETAR - Ramstein Air Base

DERNIER METAR :
  • 252100Z 00000KT 9999 SCT060 10/10 A2967 RMK AO2A RAE00 SLP050 FZRANO $

METARs EXPIRÉS :
  • 252037Z 00000KT 9999 -RA SCT039 BKN047 10/10 A2968 RMK AO2A RAE02RAB08E21RAB27E35RAB37 SLP054 FZRANO VISNO RWY08 $
  • 252027Z 25003KT 9999 -RA FEW049 BKN060 10/10 A2969 RMK AO2A RAE02RAB08E21RAB27 SLP057 FZRANO $
  • 252008Z 25003KT 9999 -RA BKN060 11/11 A2968 RMK AO2A RAE02RAB08 SLP054 FZRANO $
  • 251956Z 28003KT 9999 -RA BKN060 11/11 A2967 RMK AO2A RAB08E28RAB52 SLP050 P0001 T01050105 FZRANO $
  • 251928Z 15004KT 9999 FEW040 BKN050 BKN100 10/10 A2968 RMK AO2A RAB08E28 SLP056 FZRANO $
  • 251908Z 19004KT 9999 -RA FEW036 OVC050 11/11 A2970 RMK AO2A RAB08 PRESFR SLP063 FZRANO $
  • 251856Z 19004KT 9999 FEW036 BKN050 11/11 A2972 RMK AO2A RAE48 SLP069 P0002 T01050105 FZRANO $

TAF TAF ETAR
Valide du 25 à 18h jusqu'au 27 à 00h UTC


251800Z 2518/2624 25009KT 9000 -SHRA BKN025 OVC035 610505 QNH2965INS
TEMPO 2518/2601 26010G20KT 510004
BECMG 2600/2601 25009KT 6000 -SHRA SCT007 OVC015 610609 QNH2961INS
BECMG 2608/2609 23009KT 9000 -SHRA SCT015 BKN020 610609 QNH2967INS
BECMG 2611/2612 24010G20KT 9999 NSW SCT025 BKN035 510004 QNH2966INS
BECMG 2615/2616 22009KT 9999 SCT030 BKN150 QNH2966INS TX10/2612Z TN08/2618Z



MET'MAP, la Météo Aéronautique d'un coup d'oeil ! - Copyright ORBIFLY Décembre 2007 - Disclaimer

ORBIFLY MET'MAP TEAM :

Programmation & Développement : Alexandra Zaïnal
Sur une idée originale de : Baudouin d'Aumeries
Assistance à la programmation : Marc-Olivier Méhu
Soutien technique & logistique : Manuel Goepfert

Contact : metmap@orbifly.com




SOURCES & CREDITS :

   NOAA